Time;durP1;ratioP1;P1;durP2;ratioP2;P2;SDS_P1;SDS_P2;PMS_P1;PMS_P2;Temp;Humidity;BMP_temperature;BMP_pressure;BME280_temperature;BME280_humidity;BME280_pressure;Samples;Min_cycle;Max_cycle;Signal;HPM_P1;HPM_P2
2023/07/29 00:03:26;;;;;;;1.25;0.90;;;;;;;;;;8240541;28;20034;-71
2023/07/29 00:07:26;;;;;;;1.33;0.95;;;;;;;;;;8241062;28;20053;-71
2023/07/29 00:11:26;;;;;;;3.65;0.98;;;;;;;;;;8242634;28;20045;-71
2023/07/29 00:15:27;;;;;;;1.33;1.00;;;;;;;;;;8242932;28;20121;-71
2023/07/29 00:19:28;;;;;;;1.30;1.20;;;;;;;;;;8240139;28;20029;-71
2023/07/29 00:23:28;;;;;;;0.90;0.90;;;;;;;;;;8240619;28;20257;-72
2023/07/29 00:27:29;;;;;;;3.70;1.13;;;;;;;;;;8239571;28;20038;-71
2023/07/29 00:31:29;;;;;;;1.30;0.90;;;;;;;;;;8241214;28;20034;-71
2023/07/29 00:35:29;;;;;;;1.95;1.00;;;;;;;;;;8239648;28;21019;-70
2023/07/29 00:39:29;;;;;;;1.15;0.93;;;;;;;;;;8238768;28;20077;-71
2023/07/29 00:43:29;;;;;;;2.22;0.98;;;;;;;;;;8240317;28;20769;-72
2023/07/29 00:47:30;;;;;;;1.00;1.00;;;;;;;;;;8240498;28;20046;-71
2023/07/29 00:51:30;;;;;;;0.93;0.93;;;;;;;;;;8240594;28;20045;-71
2023/07/29 00:55:30;;;;;;;1.67;0.90;;;;;;;;;;8241780;28;20041;-72
2023/07/29 00:59:31;;;;;;;2.67;0.82;;;;;;;;;;8238747;28;20022;-71
2023/07/29 01:03:32;;;;;;;2.28;1.10;;;;;;;;;;8239838;28;20038;-71
2023/07/29 01:07:35;;;;;;;1.70;1.00;;;;;;;;;;8240283;28;20109;-72
2023/07/29 01:11:43;;;;;;;1.00;1.00;;;;;;;;;;8239404;28;20596;-71
2023/07/29 01:15:51;;;;;;;1.65;1.00;;;;;;;;;;8220566;28;20034;-71
2023/07/29 01:20:07;;;;;;;3.75;1.10;;;;;;;;;;8235547;28;20026;-71
2023/07/29 01:24:07;;;;;;;2.17;0.90;;;;;;;;;;8236705;28;20037;-71
2023/07/29 01:28:08;;;;;;;1.10;0.93;;;;;;;;;;8237306;28;20495;-71
2023/07/29 01:32:14;;;;;;;1.60;1.00;;;;;;;;;;8240670;28;20156;-71
2023/07/29 01:36:20;;;;;;;1.92;1.25;;;;;;;;;;8229307;28;20200;-71
2023/07/29 01:40:21;;;;;;;1.13;1.10;;;;;;;;;;8239872;28;20084;-71
2023/07/29 01:44:22;;;;;;;2.03;1.00;;;;;;;;;;8240487;28;20049;-71
2023/07/29 01:48:22;;;;;;;1.20;1.02;;;;;;;;;;8240927;28;20034;-71
2023/07/29 01:52:22;;;;;;;1.33;0.90;;;;;;;;;;8236480;28;20022;-71
2023/07/29 01:56:22;;;;;;;1.23;1.15;;;;;;;;;;8239313;28;20026;-71
2023/07/29 02:00:23;;;;;;;1.75;0.90;;;;;;;;;;8237198;28;20022;-72
2023/07/29 02:04:23;;;;;;;1.50;0.90;;;;;;;;;;8239235;28;20437;-71
2023/07/29 02:08:23;;;;;;;1.63;1.00;;;;;;;;;;8236130;28;20156;-71
2023/07/29 02:12:23;;;;;;;0.90;0.90;;;;;;;;;;8239230;28;20061;-71
2023/07/29 02:16:24;;;;;;;0.88;0.88;;;;;;;;;;8236230;28;20038;-71
2023/07/29 02:20:24;;;;;;;1.08;1.00;;;;;;;;;;8236690;28;20015;-71
2023/07/29 02:24:24;;;;;;;2.00;1.10;;;;;;;;;;8238229;28;20019;-71
2023/07/29 02:28:25;;;;;;;1.67;1.17;;;;;;;;;;8230706;28;20029;-71
2023/07/29 02:32:25;;;;;;;4.38;1.27;;;;;;;;;;8227598;28;21057;-71
2023/07/29 02:36:25;;;;;;;1.30;1.13;;;;;;;;;;8238128;28;20121;-71
2023/07/29 02:40:26;;;;;;;2.45;1.25;;;;;;;;;;8236808;28;20022;-70
2023/07/29 02:44:26;;;;;;;2.88;1.17;;;;;;;;;;8238268;28;20022;-71
2023/07/29 02:48:28;;;;;;;3.13;1.48;;;;;;;;;;8236692;28;20842;-71
2023/07/29 02:52:28;;;;;;;1.42;1.00;;;;;;;;;;8237446;28;20025;-70
2023/07/29 02:56:30;;;;;;;1.60;1.10;;;;;;;;;;8236265;28;20488;-71
2023/07/29 03:00:33;;;;;;;1.45;1.10;;;;;;;;;;8221809;28;20104;-71
2023/07/29 03:04:33;;;;;;;1.95;1.27;;;;;;;;;;8236316;28;20038;-71
2023/07/29 03:08:34;;;;;;;1.55;1.25;;;;;;;;;;8239751;28;20076;-71
2023/07/29 03:12:34;;;;;;;1.42;1.33;;;;;;;;;;8236277;28;20033;-71
2023/07/29 03:16:34;;;;;;;1.42;1.33;;;;;;;;;;8236390;28;20501;-70
2023/07/29 03:20:35;;;;;;;5.23;1.50;;;;;;;;;;8236377;28;20427;-70
2023/07/29 03:24:35;;;;;;;2.33;1.60;;;;;;;;;;8235978;28;20132;-71
2023/07/29 03:28:37;;;;;;;3.97;1.52;;;;;;;;;;8227424;28;20057;-71
2023/07/29 03:32:40;;;;;;;1.52;1.42;;;;;;;;;;8236066;28;20104;-71
2023/07/29 03:36:41;;;;;;;1.30;1.20;;;;;;;;;;8240237;28;20034;-70
2023/07/29 03:40:41;;;;;;;2.63;1.50;;;;;;;;;;8243278;28;20791;-70
2023/07/29 03:44:41;;;;;;;1.70;1.60;;;;;;;;;;8243869;28;20034;-70
2023/07/29 03:48:42;;;;;;;1.58;1.48;;;;;;;;;;8241065;28;21060;-71
2023/07/29 03:52:42;;;;;;;2.70;1.80;;;;;;;;;;8226018;28;20137;-71
2023/07/29 03:56:42;;;;;;;1.80;1.70;;;;;;;;;;8243694;28;20040;-71
2023/07/29 04:00:43;;;;;;;3.10;2.10;;;;;;;;;;8224855;28;20103;-71
2023/07/29 04:04:47;;;;;;;2.47;2.00;;;;;;;;;;8241291;28;20022;-70
2023/07/29 04:08:47;;;;;;;2.17;2.08;;;;;;;;;;8243503;28;20068;-71
2023/07/29 04:12:47;;;;;;;2.30;1.97;;;;;;;;;;8244067;28;20038;-71
2023/07/29 04:16:49;;;;;;;4.45;1.90;;;;;;;;;;8241049;28;20285;-71
2023/07/29 04:20:49;;;;;;;2.17;1.83;;;;;;;;;;8241641;28;20772;-71
2023/07/29 04:24:49;;;;;;;2.60;1.80;;;;;;;;;;8241384;28;20482;-71
2023/07/29 04:28:52;;;;;;;1.90;1.75;;;;;;;;;;8245898;28;20026;-71
2023/07/29 04:32:52;;;;;;;1.73;1.63;;;;;;;;;;8248858;28;20045;-70
2023/07/29 04:36:53;;;;;;;1.80;1.67;;;;;;;;;;8223947;28;20018;-71
2023/07/29 04:40:54;;;;;;;2.92;1.80;;;;;;;;;;8243584;28;20758;-71
2023/07/29 04:44:54;;;;;;;1.88;1.70;;;;;;;;;;8243432;28;20057;-71
2023/07/29 04:48:55;;;;;;;4.13;1.98;;;;;;;;;;8241861;28;20794;-71
2023/07/29 04:52:55;;;;;;;4.57;1.63;;;;;;;;;;8239223;28;20033;-71
2023/07/29 04:56:55;;;;;;;4.18;1.65;;;;;;;;;;8241755;28;20040;-70
2023/07/29 05:00:55;;;;;;;1.55;1.45;;;;;;;;;;8243300;28;20105;-70
2023/07/29 05:04:56;;;;;;;1.85;1.70;;;;;;;;;;8239943;28;20053;-70
2023/07/29 05:08:57;;;;;;;1.70;1.50;;;;;;;;;;8239012;28;20037;-70
2023/07/29 05:12:57;;;;;;;2.55;1.60;;;;;;;;;;8240494;28;20033;-70
2023/07/29 05:16:57;;;;;;;3.17;1.50;;;;;;;;;;8239783;28;21986;-70
2023/07/29 05:20:57;;;;;;;1.60;1.50;;;;;;;;;;8239062;28;20033;-70
2023/07/29 05:24:58;;;;;;;2.72;1.70;;;;;;;;;;8239325;28;20172;-70
2023/07/29 05:28:58;;;;;;;1.97;1.87;;;;;;;;;;8222099;28;20863;-70
2023/07/29 05:32:58;;;;;;;3.73;1.83;;;;;;;;;;8238782;28;20745;-70
2023/07/29 05:36:58;;;;;;;2.63;1.73;;;;;;;;;;8237251;28;20292;-70
2023/07/29 05:40:58;;;;;;;2.28;1.77;;;;;;;;;;8240040;28;20077;-70
2023/07/29 05:44:59;;;;;;;3.67;1.70;;;;;;;;;;8240410;28;21082;-70
2023/07/29 05:48:59;;;;;;;2.13;1.60;;;;;;;;;;8238001;28;20039;-70
2023/07/29 05:52:59;;;;;;;2.33;1.50;;;;;;;;;;8236596;28;20033;-70
2023/07/29 05:56:59;;;;;;;2.22;1.60;;;;;;;;;;8238627;28;20049;-70
2023/07/29 06:01:00;;;;;;;2.05;1.50;;;;;;;;;;8237801;28;20041;-70
2023/07/29 06:05:02;;;;;;;2.40;1.73;;;;;;;;;;8246053;28;20054;-70
2023/07/29 06:09:03;;;;;;;4.60;1.47;;;;;;;;;;8219608;28;20022;-70
2023/07/29 06:13:03;;;;;;;2.50;1.60;;;;;;;;;;8239954;28;20022;-70
2023/07/29 06:17:03;;;;;;;2.10;1.05;;;;;;;;;;8220177;28;20041;-70
2023/07/29 06:21:07;;;;;;;10.98;1.98;;;;;;;;;;8236440;28;20040;-70
2023/07/29 06:25:08;;;;;;;4.65;1.10;;;;;;;;;;8236806;28;20056;-70
2023/07/29 06:29:08;;;;;;;4.35;1.05;;;;;;;;;;8237775;28;20061;-70
2023/07/29 06:33:09;;;;;;;4.60;1.10;;;;;;;;;;8236663;28;20120;-70
2023/07/29 06:37:09;;;;;;;3.28;1.20;;;;;;;;;;8236241;28;20109;-70
2023/07/29 06:41:09;;;;;;;1.02;0.90;;;;;;;;;;8238968;28;20030;-69
2023/07/29 06:45:10;;;;;;;4.38;1.05;;;;;;;;;;8245225;28;20026;-70
2023/07/29 06:49:10;;;;;;;4.85;1.40;;;;;;;;;;8235822;28;20073;-70
2023/07/29 06:53:10;;;;;;;1.83;0.93;;;;;;;;;;8233909;28;20128;-70
2023/07/29 06:57:10;;;;;;;0.80;0.80;;;;;;;;;;8235345;28;20053;-70
2023/07/29 07:01:10;;;;;;;2.67;1.10;;;;;;;;;;8238324;28;20065;-69
2023/07/29 07:05:11;;;;;;;0.82;0.82;;;;;;;;;;8239417;28;20018;-69
2023/07/29 07:09:11;;;;;;;2.23;0.77;;;;;;;;;;8236812;28;20592;-71
2023/07/29 07:13:12;;;;;;;1.27;0.70;;;;;;;;;;8246986;28;20026;-70
2023/07/29 07:17:13;;;;;;;2.53;0.85;;;;;;;;;;8216752;28;20057;-72
2023/07/29 07:21:13;;;;;;;0.80;0.80;;;;;;;;;;8235760;28;20031;-72
2023/07/29 07:25:13;;;;;;;1.13;0.87;;;;;;;;;;8238970;28;20026;-71
2023/07/29 07:29:13;;;;;;;1.48;0.93;;;;;;;;;;8238049;28;20026;-72
2023/07/29 07:33:13;;;;;;;4.53;1.35;;;;;;;;;;8240412;28;20060;-72
2023/07/29 07:37:14;;;;;;;1.48;0.85;;;;;;;;;;8232993;28;20025;-72
2023/07/29 07:41:14;;;;;;;1.58;1.15;;;;;;;;;;8238958;28;20097;-71
2023/07/29 07:45:14;;;;;;;1.52;0.90;;;;;;;;;;8236244;28;20430;-72
2023/07/29 07:49:14;;;;;;;0.70;0.70;;;;;;;;;;8232232;28;20073;-72
2023/07/29 07:53:15;;;;;;;1.55;0.95;;;;;;;;;;8236038;28;20030;-72
2023/07/29 07:57:15;;;;;;;1.00;0.97;;;;;;;;;;8228489;28;20057;-71
2023/07/29 08:01:15;;;;;;;1.17;0.80;;;;;;;;;;8233036;28;20277;-72
2023/07/29 08:05:15;;;;;;;2.22;0.75;;;;;;;;;;8230853;28;20084;-72
2023/07/29 08:09:15;;;;;;;1.00;0.70;;;;;;;;;;8233657;28;20056;-72
2023/07/29 08:13:15;;;;;;;0.90;0.90;;;;;;;;;;8235075;28;20029;-72
2023/07/29 08:17:16;;;;;;;1.02;0.93;;;;;;;;;;8233331;28;20030;-72
2023/07/29 08:21:16;;;;;;;4.80;0.70;;;;;;;;;;8239103;28;20042;-72
2023/07/29 08:25:16;;;;;;;0.70;0.70;;;;;;;;;;8242989;28;20041;-72
2023/07/29 08:29:16;;;;;;;0.80;0.80;;;;;;;;;;8243362;28;20033;-72
2023/07/29 08:33:16;;;;;;;0.80;0.80;;;;;;;;;;8238115;28;20156;-72
2023/07/29 08:37:17;;;;;;;0.95;0.90;;;;;;;;;;8240361;28;20037;-72
2023/07/29 08:41:40;;;;;;;2.67;0.80;;;;;;;;;;8241155;28;20036;-72
2023/07/29 08:45:41;;;;;;;0.70;0.70;;;;;;;;;;8231201;28;20427;-72
2023/07/29 08:49:42;;;;;;;2.15;0.98;;;;;;;;;;8241012;28;20038;-73
2023/07/29 08:53:42;;;;;;;2.78;1.00;;;;;;;;;;8242885;28;20651;-72
2023/07/29 08:57:43;;;;;;;1.58;0.90;;;;;;;;;;8231904;28;20040;-72
2023/07/29 09:01:43;;;;;;;1.63;1.15;;;;;;;;;;8240362;28;20034;-72
2023/07/29 09:05:43;;;;;;;2.57;0.80;;;;;;;;;;8239578;28;20351;-72
2023/07/29 09:09:43;;;;;;;2.17;0.90;;;;;;;;;;8243055;28;20273;-72
2023/07/29 09:13:44;;;;;;;1.00;0.88;;;;;;;;;;8240181;28;20116;-72
2023/07/29 09:17:44;;;;;;;0.93;0.88;;;;;;;;;;8240209;28;20046;-72
2023/07/29 09:21:46;;;;;;;1.50;0.82;;;;;;;;;;8242426;28;20049;-72
2023/07/29 09:25:46;;;;;;;1.00;1.00;;;;;;;;;;8240371;28;20654;-72
2023/07/29 09:29:46;;;;;;;3.53;1.35;;;;;;;;;;8239460;28;20021;-72
2023/07/29 09:33:46;;;;;;;4.10;1.33;;;;;;;;;;8239927;28;20078;-71
2023/07/29 09:37:47;;;;;;;2.17;0.90;;;;;;;;;;8238295;28;20022;-72
2023/07/29 09:41:49;;;;;;;1.02;1.00;;;;;;;;;;8224211;28;20026;-72
2023/07/29 09:45:51;;;;;;;2.05;0.98;;;;;;;;;;8238683;28;20153;-72
2023/07/29 09:49:52;;;;;;;1.90;1.17;;;;;;;;;;8237774;28;20049;-72
2023/07/29 09:53:52;;;;;;;1.10;1.00;;;;;;;;;;8239503;28;20688;-72
2023/07/29 09:58:03;;;;;;;1.17;0.93;;;;;;;;;;8237884;28;20116;-72
2023/07/29 10:02:04;;;;;;;1.52;1.08;;;;;;;;;;8223761;28;20092;-72
2023/07/29 10:06:04;;;;;;;1.23;1.13;;;;;;;;;;8233833;28;20026;-72
2023/07/29 10:10:07;;;;;;;1.38;1.20;;;;;;;;;;8238118;28;20379;-73
2023/07/29 10:14:08;;;;;;;2.97;1.10;;;;;;;;;;8238042;28;20124;-72
2023/07/29 10:18:08;;;;;;;1.50;1.20;;;;;;;;;;8226342;28;20048;-72
2023/07/29 10:22:10;;;;;;;1.63;1.13;;;;;;;;;;8236811;28;20018;-72
2023/07/29 10:26:10;;;;;;;;;;;;;;;;;;8237139;28;20030;-72
2023/07/29 10:30:12;;;;;;;5.38;1.10;;;;;;;;;;8237767;28;20003;-72
2023/07/29 10:34:12;;;;;;;1.00;0.90;;;;;;;;;;8233818;28;20061;-72
2023/07/29 10:38:13;;;;;;;1.00;1.00;;;;;;;;;;8234368;28;20029;-72
2023/07/29 10:42:13;;;;;;;1.88;0.95;;;;;;;;;;8236742;28;20060;-72
2023/07/29 10:46:17;;;;;;;3.28;1.05;;;;;;;;;;8219238;28;20510;-73
2023/07/29 10:50:19;;;;;;;2.10;1.25;;;;;;;;;;8235110;28;20026;-72
2023/07/29 10:54:19;;;;;;;1.47;1.00;;;;;;;;;;8237049;28;20022;-72
2023/07/29 10:58:19;;;;;;;1.75;1.20;;;;;;;;;;8237532;28;20537;-72
2023/07/29 11:02:19;;;;;;;3.43;1.10;;;;;;;;;;8236626;28;20053;-71
2023/07/29 11:06:20;;;;;;;2.58;1.30;;;;;;;;;;8232911;28;20124;-71
2023/07/29 11:10:20;;;;;;;1.23;0.93;;;;;;;;;;8233264;28;20057;-71
2023/07/29 11:14:21;;;;;;;1.30;1.00;;;;;;;;;;8236217;28;20040;-71
2023/07/29 11:18:21;;;;;;;0.98;0.98;;;;;;;;;;8233742;28;20034;-71
2023/07/29 11:22:21;;;;;;;1.20;1.10;;;;;;;;;;8228409;28;20026;-70
2023/07/29 11:26:22;;;;;;;2.00;0.90;;;;;;;;;;8233142;28;20037;-71
2023/07/29 11:30:23;;;;;;;3.20;1.17;;;;;;;;;;8232434;28;20496;-70
2023/07/29 11:34:32;;;;;;;1.35;1.00;;;;;;;;;;8231097;28;20034;-70
2023/07/29 11:38:36;;;;;;;1.38;0.95;;;;;;;;;;8228932;28;20040;-71
2023/07/29 11:42:37;;;;;;;1.45;1.02;;;;;;;;;;8233633;28;20763;-70
2023/07/29 11:46:37;;;;;;;1.00;0.90;;;;;;;;;;8227738;28;20041;-70
2023/07/29 11:50:37;;;;;;;1.00;1.00;;;;;;;;;;8229798;28;20088;-70
2023/07/29 11:54:38;;;;;;;1.98;1.00;;;;;;;;;;8232351;28;20064;-70
2023/07/29 11:58:38;;;;;;;1.27;1.00;;;;;;;;;;8239325;28;20025;-70
2023/07/29 12:02:40;;;;;;;2.05;0.90;;;;;;;;;;8235899;28;20038;-73
2023/07/29 12:06:40;;;;;;;0.97;0.97;;;;;;;;;;8238800;28;20890;-73
2023/07/29 12:10:41;;;;;;;1.05;1.00;;;;;;;;;;8243373;28;20777;-73
2023/07/29 12:14:43;;;;;;;1.83;1.20;;;;;;;;;;8240181;28;20026;-73
2023/07/29 12:18:44;;;;;;;1.77;1.10;;;;;;;;;;8241610;28;20038;-74
2023/07/29 12:22:44;;;;;;;1.95;0.93;;;;;;;;;;8239899;28;20042;-73
2023/07/29 12:26:44;;;;;;;5.05;1.00;;;;;;;;;;8244253;28;20030;-73
2023/07/29 12:30:44;;;;;;;1.00;1.00;;;;;;;;;;8226721;28;20101;-73
2023/07/29 12:34:45;;;;;;;1.00;0.90;;;;;;;;;;8243929;28;20034;-72
2023/07/29 12:38:45;;;;;;;2.47;1.00;;;;;;;;;;8242573;28;20034;-73
2023/07/29 12:42:45;;;;;;;1.25;1.15;;;;;;;;;;8244573;28;20470;-73
2023/07/29 12:46:45;;;;;;;3.33;1.00;;;;;;;;;;8241464;28;20100;-73
2023/07/29 12:50:46;;;;;;;2.95;0.90;;;;;;;;;;8243399;28;20022;-72
2023/07/29 12:54:46;;;;;;;1.07;0.97;;;;;;;;;;8244286;28;20149;-73
2023/07/29 12:58:46;;;;;;;1.13;1.00;;;;;;;;;;8242790;28;20288;-73
2023/07/29 13:02:46;;;;;;;2.90;1.13;;;;;;;;;;8242125;28;20038;-73
2023/07/29 13:06:47;;;;;;;1.73;1.00;;;;;;;;;;8223845;28;20029;-73
2023/07/29 13:10:47;;;;;;;1.00;0.90;;;;;;;;;;8241185;28;20026;-73
2023/07/29 13:14:47;;;;;;;1.00;1.00;;;;;;;;;;8240768;28;20032;-73
2023/07/29 13:18:47;;;;;;;1.00;1.00;;;;;;;;;;8241308;28;20054;-73
2023/07/29 13:22:47;;;;;;;1.08;1.05;;;;;;;;;;8238604;28;20032;-73
2023/07/29 13:26:48;;;;;;;1.42;1.10;;;;;;;;;;8223668;28;20026;-74
2023/07/29 13:30:48;;;;;;;1.35;1.20;;;;;;;;;;8240380;28;20073;-73
2023/07/29 13:34:48;;;;;;;1.33;1.00;;;;;;;;;;8242159;28;20109;-73
2023/07/29 13:38:49;;;;;;;1.53;1.00;;;;;;;;;;8239449;28;20026;-73
2023/07/29 13:42:49;;;;;;;1.05;1.05;;;;;;;;;;8240129;28;20026;-73
2023/07/29 13:46:49;;;;;;;1.63;1.00;;;;;;;;;;8237261;28;20040;-73
2023/07/29 13:50:50;;;;;;;3.07;1.10;;;;;;;;;;8240779;28;20060;-73
2023/07/29 13:54:51;;;;;;;0.90;0.90;;;;;;;;;;8236018;28;20038;-74
2023/07/29 13:58:51;;;;;;;1.20;1.10;;;;;;;;;;8239935;28;20136;-73
2023/07/29 14:02:51;;;;;;;1.05;0.98;;;;;;;;;;8235031;28;20038;-74
2023/07/29 14:06:51;;;;;;;2.10;1.10;;;;;;;;;;8235697;28;20041;-73
2023/07/29 14:10:51;;;;;;;1.38;1.00;;;;;;;;;;8236085;28;20148;-73
2023/07/29 14:14:51;;;;;;;1.00;1.00;;;;;;;;;;8238375;28;20023;-73
2023/07/29 14:18:52;;;;;;;1.60;1.10;;;;;;;;;;8236128;28;20096;-74
2023/07/29 14:22:52;;;;;;;0.93;0.90;;;;;;;;;;8232473;28;20141;-73
2023/07/29 14:26:52;;;;;;;1.30;1.00;;;;;;;;;;8235821;28;20030;-74
2023/07/29 14:30:52;;;;;;;1.40;1.30;;;;;;;;;;8235146;28;20122;-73
2023/07/29 14:34:52;;;;;;;2.55;1.15;;;;;;;;;;8220353;28;20061;-74
2023/07/29 14:38:53;;;;;;;1.00;1.00;;;;;;;;;;8237544;28;20077;-73
2023/07/29 14:42:53;;;;;;;1.88;1.30;;;;;;;;;;8239228;28;20038;-73
2023/07/29 14:46:53;;;;;;;1.40;1.15;;;;;;;;;;8219038;28;20038;-73
2023/07/29 14:50:53;;;;;;;1.27;1.02;;;;;;;;;;8235884;28;20084;-73
2023/07/29 14:54:54;;;;;;;1.17;1.08;;;;;;;;;;8236991;28;20140;-73
2023/07/29 14:58:54;;;;;;;1.30;1.20;;;;;;;;;;8237177;28;20108;-73
2023/07/29 15:02:54;;;;;;;1.65;1.00;;;;;;;;;;8237745;28;20076;-73
2023/07/29 15:06:54;;;;;;;1.05;1.05;;;;;;;;;;8240063;28;20030;-73
2023/07/29 15:10:54;;;;;;;1.40;1.10;;;;;;;;;;8239103;28;20061;-73
2023/07/29 15:14:55;;;;;;;1.02;1.00;;;;;;;;;;8239065;28;20038;-74
2023/07/29 15:18:55;;;;;;;1.17;1.10;;;;;;;;;;8238196;28;20073;-73
2023/07/29 15:22:55;;;;;;;1.73;1.20;;;;;;;;;;8239757;28;20647;-73
2023/07/29 15:26:55;;;;;;;1.15;1.13;;;;;;;;;;8239897;28;20030;-74
2023/07/29 15:30:55;;;;;;;1.52;1.10;;;;;;;;;;8237185;28;20038;-73
2023/07/29 15:34:56;;;;;;;1.70;1.13;;;;;;;;;;8244294;28;20038;-73
2023/07/29 15:38:56;;;;;;;1.23;1.17;;;;;;;;;;8242994;28;20061;-74
2023/07/29 15:42:56;;;;;;;1.80;1.10;;;;;;;;;;8245230;28;20822;-73
2023/07/29 15:46:57;;;;;;;1.10;1.10;;;;;;;;;;8244299;28;20190;-73
2023/07/29 15:50:58;;;;;;;1.10;1.10;;;;;;;;;;8243182;28;20018;-74
2023/07/29 15:54:58;;;;;;;5.13;1.20;;;;;;;;;;8243361;28;20040;-73
2023/07/29 15:58:58;;;;;;;2.95;1.27;;;;;;;;;;8242570;28;20072;-73
2023/07/29 16:02:58;;;;;;;1.75;1.17;;;;;;;;;;8228245;28;20148;-73
2023/07/29 16:06:58;;;;;;;1.42;1.33;;;;;;;;;;8242870;28;20036;-73
2023/07/29 16:10:59;;;;;;;1.00;1.00;;;;;;;;;;8246298;28;20050;-74
2023/07/29 16:14:59;;;;;;;1.67;1.10;;;;;;;;;;8244501;28;20033;-74
2023/07/29 16:18:59;;;;;;;2.08;1.20;;;;;;;;;;8245672;28;20091;-73
2023/07/29 16:22:59;;;;;;;3.05;1.23;;;;;;;;;;8244672;28;20045;-73
2023/07/29 16:26:59;;;;;;;1.63;1.13;;;;;;;;;;8244939;28;20056;-74
2023/07/29 16:30:59;;;;;;;2.58;1.30;;;;;;;;;;8244946;28;20133;-74
2023/07/29 16:35:00;;;;;;;1.38;1.23;;;;;;;;;;8241828;28;20030;-74
2023/07/29 16:39:00;;;;;;;1.15;1.05;;;;;;;;;;8243578;28;20034;-73
2023/07/29 16:43:00;;;;;;;1.30;1.20;;;;;;;;;;8244114;28;20029;-73
2023/07/29 16:47:00;;;;;;;1.33;1.20;;;;;;;;;;8242351;28;20284;-73
2023/07/29 16:51:01;;;;;;;1.20;1.10;;;;;;;;;;8244071;28;20026;-73
2023/07/29 16:55:01;;;;;;;1.30;1.20;;;;;;;;;;8243985;28;20034;-73
2023/07/29 16:59:01;;;;;;;1.30;1.20;;;;;;;;;;8244840;28;20038;-73
2023/07/29 17:03:01;;;;;;;1.40;1.30;;;;;;;;;;8241544;28;20045;-73
2023/07/29 17:07:02;;;;;;;1.20;1.20;;;;;;;;;;8243249;28;20033;-73
2023/07/29 17:11:02;;;;;;;1.80;1.20;;;;;;;;;;8241508;28;20038;-73
2023/07/29 17:15:02;;;;;;;1.20;1.10;;;;;;;;;;8243837;28;20112;-73
2023/07/29 17:19:03;;;;;;;1.20;1.20;;;;;;;;;;8243439;28;20034;-73
2023/07/29 17:23:03;;;;;;;1.98;1.30;;;;;;;;;;8240170;28;20030;-73
2023/07/29 17:27:03;;;;;;;1.30;1.20;;;;;;;;;;8241393;28;20030;-73
2023/07/29 17:31:03;;;;;;;1.17;1.10;;;;;;;;;;8242241;28;20096;-73
2023/07/29 17:35:04;;;;;;;1.40;1.30;;;;;;;;;;8242933;28;20069;-73
2023/07/29 17:39:05;;;;;;;1.25;1.20;;;;;;;;;;8240418;28;20057;-73
2023/07/29 17:43:05;;;;;;;1.48;1.27;;;;;;;;;;8240931;28;20017;-73
2023/07/29 17:47:06;;;;;;;2.22;1.10;;;;;;;;;;8229755;28;20053;-73
2023/07/29 17:51:06;;;;;;;1.50;1.40;;;;;;;;;;8241501;28;20034;-73
2023/07/29 17:55:06;;;;;;;1.50;1.40;;;;;;;;;;8241011;28;20033;-73
2023/07/29 17:59:06;;;;;;;2.30;1.27;;;;;;;;;;8240676;28;20522;-73
2023/07/29 18:03:06;;;;;;;3.10;1.20;;;;;;;;;;8239767;28;20617;-73
2023/07/29 18:07:07;;;;;;;1.65;1.50;;;;;;;;;;8222068;28;20026;-73
2023/07/29 18:11:07;;;;;;;3.90;1.40;;;;;;;;;;8239985;28;20022;-73
2023/07/29 18:15:08;;;;;;;3.17;1.50;;;;;;;;;;8239608;28;20136;-73
2023/07/29 18:19:08;;;;;;;3.20;1.42;;;;;;;;;;8240499;28;20040;-73
2023/07/29 18:23:08;;;;;;;2.72;1.40;;;;;;;;;;8239312;28;20825;-73
2023/07/29 18:27:09;;;;;;;2.10;1.27;;;;;;;;;;8239388;28;20068;-73
2023/07/29 18:31:10;;;;;;;1.60;1.50;;;;;;;;;;8234716;28;20046;-73
2023/07/29 18:35:17;;;;;;;1.48;1.38;;;;;;;;;;8234135;28;20034;-73
2023/07/29 18:39:17;;;;;;;2.65;1.38;;;;;;;;;;8235618;28;20659;-73
2023/07/29 18:43:18;;;;;;;2.95;1.40;;;;;;;;;;8241695;28;20024;-72
2023/07/29 18:47:19;;;;;;;1.48;1.38;;;;;;;;;;8236430;28;20823;-73
2023/07/29 18:51:19;;;;;;;4.72;1.55;;;;;;;;;;8238589;28;20030;-73
2023/07/29 18:55:20;;;;;;;2.60;1.40;;;;;;;;;;8238881;28;20101;-73
2023/07/29 18:59:22;;;;;;;2.30;1.50;;;;;;;;;;8237895;28;20033;-73
2023/07/29 19:03:22;;;;;;;2.25;1.40;;;;;;;;;;8238027;28;20803;-73
2023/07/29 19:07:24;;;;;;;1.70;1.40;;;;;;;;;;8236445;28;20036;-72
2023/07/29 19:11:25;;;;;;;2.47;1.37;;;;;;;;;;8240791;28;20025;-73
2023/07/29 19:15:25;;;;;;;1.52;1.42;;;;;;;;;;8238147;28;20038;-73
2023/07/29 19:19:25;;;;;;;1.50;1.40;;;;;;;;;;8236404;28;20022;-73
2023/07/29 19:23:25;;;;;;;4.72;1.60;;;;;;;;;;8221963;28;20129;-73
2023/07/29 19:27:26;;;;;;;3.70;1.50;;;;;;;;;;8235936;28;20030;-73
2023/07/29 19:31:26;;;;;;;1.83;1.53;;;;;;;;;;8237701;28;20073;-73
2023/07/29 19:35:26;;;;;;;2.10;1.40;;;;;;;;;;8238142;28;21119;-73
2023/07/29 19:39:26;;;;;;;6.23;1.67;;;;;;;;;;8234241;28;20026;-73
2023/07/29 19:43:27;;;;;;;1.90;1.33;;;;;;;;;;8237714;28;20327;-73
2023/07/29 19:47:27;;;;;;;6.18;1.70;;;;;;;;;;8238615;28;20045;-74
2023/07/29 19:51:27;;;;;;;3.75;1.40;;;;;;;;;;8233820;28;20690;-73
2023/07/29 19:55:30;;;;;;;4.73;1.57;;;;;;;;;;8234913;28;20022;-73
2023/07/29 19:59:30;;;;;;;1.88;1.60;;;;;;;;;;8236636;28;20108;-74
2023/07/29 20:03:30;;;;;;;5.03;1.57;;;;;;;;;;8234556;28;20042;-73
2023/07/29 20:07:31;;;;;;;1.75;1.65;;;;;;;;;;8231641;28;20025;-71
2023/07/29 20:11:31;;;;;;;2.80;1.50;;;;;;;;;;8237749;28;20825;-71
2023/07/29 20:15:32;;;;;;;2.80;1.63;;;;;;;;;;8237379;28;20096;-72
2023/07/29 20:19:34;;;;;;;1.52;1.38;;;;;;;;;;8239975;28;20034;-71
2023/07/29 20:23:34;;;;;;;3.17;1.80;;;;;;;;;;8243324;28;20022;-71
2023/07/29 20:27:34;;;;;;;3.75;1.60;;;;;;;;;;8242029;28;20572;-71
2023/07/29 20:31:34;;;;;;;1.93;1.60;;;;;;;;;;8241961;28;20058;-71
2023/07/29 20:35:35;;;;;;;4.22;1.48;;;;;;;;;;8242976;28;20029;-71
2023/07/29 20:39:35;;;;;;;2.95;1.35;;;;;;;;;;8241146;28;20026;-71
2023/07/29 20:43:35;;;;;;;2.42;1.50;;;;;;;;;;8226113;28;20160;-71
2023/07/29 20:47:36;;;;;;;2.08;1.70;;;;;;;;;;8242414;28;20050;-71
2023/07/29 20:51:36;;;;;;;1.25;1.17;;;;;;;;;;8231541;28;20949;-71
2023/07/29 20:55:36;;;;;;;5.13;1.48;;;;;;;;;;8224751;28;20048;-71
2023/07/29 20:59:37;;;;;;;5.90;1.75;;;;;;;;;;8241192;28;20049;-71
2023/07/29 21:03:37;;;;;;;3.83;1.73;;;;;;;;;;8241224;28;20061;-72
2023/07/29 21:07:37;;;;;;;1.50;1.40;;;;;;;;;;8239319;28;20034;-71
2023/07/29 21:11:37;;;;;;;1.65;1.55;;;;;;;;;;8242297;28;20041;-71
2023/07/29 21:15:38;;;;;;;3.30;1.90;;;;;;;;;;8239692;28;20074;-71
2023/07/29 21:19:38;;;;;;;1.77;1.50;;;;;;;;;;8239981;28;20081;-70
2023/07/29 21:23:38;;;;;;;2.58;1.50;;;;;;;;;;8240317;28;20034;-71
2023/07/29 21:27:38;;;;;;;2.40;1.45;;;;;;;;;;8237509;28;20807;-71
2023/07/29 21:31:38;;;;;;;1.93;1.60;;;;;;;;;;8236188;28;20069;-71
2023/07/29 21:35:39;;;;;;;2.75;1.60;;;;;;;;;;8239493;28;20335;-71
2023/07/29 21:39:39;;;;;;;1.95;1.60;;;;;;;;;;8239626;28;20034;-71
2023/07/29 21:43:39;;;;;;;2.08;1.70;;;;;;;;;;8239976;28;20037;-71
2023/07/29 21:47:39;;;;;;;1.77;1.67;;;;;;;;;;8234076;28;20466;-71
2023/07/29 21:51:40;;;;;;;1.63;1.43;;;;;;;;;;8232849;28;20033;-70
2023/07/29 21:55:41;;;;;;;1.67;1.50;;;;;;;;;;8236419;28;20692;-71
2023/07/29 21:59:41;;;;;;;2.42;1.65;;;;;;;;;;8237282;28;20117;-70
2023/07/29 22:03:41;;;;;;;1.80;1.60;;;;;;;;;;8235571;28;20029;-70
2023/07/29 22:07:41;;;;;;;3.25;1.70;;;;;;;;;;8233240;28;20156;-71
2023/07/29 22:11:41;;;;;;;1.60;1.50;;;;;;;;;;8237908;28;20029;-70
2023/07/29 22:15:42;;;;;;;1.80;1.23;;;;;;;;;;8232130;28;20088;-71
2023/07/29 22:19:43;;;;;;;3.43;1.60;;;;;;;;;;8238095;28;20092;-71
2023/07/29 22:23:44;;;;;;;3.42;1.65;;;;;;;;;;8237386;28;20030;-71
2023/07/29 22:27:44;;;;;;;2.65;1.40;;;;;;;;;;8236640;28;20030;-71
2023/07/29 22:31:45;;;;;;;1.73;1.50;;;;;;;;;;8236187;28;20041;-71
2023/07/29 22:35:45;;;;;;;2.08;1.30;;;;;;;;;;8236434;28;20720;-71
2023/07/29 22:39:47;;;;;;;1.98;1.40;;;;;;;;;;8235910;28;20064;-70
2023/07/29 22:43:48;;;;;;;1.48;1.38;;;;;;;;;;8238983;28;20060;-71
2023/07/29 22:47:48;;;;;;;1.30;1.20;;;;;;;;;;8236925;28;20042;-71
2023/07/29 22:51:49;;;;;;;2.53;1.08;;;;;;;;;;8237664;28;20109;-71
2023/07/29 22:55:50;;;;;;;2.67;1.30;;;;;;;;;;8235796;28;20292;-71
2023/07/29 22:59:50;;;;;;;2.25;1.30;;;;;;;;;;8237411;28;20026;-71
2023/07/29 23:03:50;;;;;;;1.63;1.30;;;;;;;;;;8236537;28;20038;-71
2023/07/29 23:07:50;;;;;;;1.17;1.08;;;;;;;;;;8235810;28;20037;-71
2023/07/29 23:11:51;;;;;;;1.55;1.10;;;;;;;;;;8238490;28;20029;-71
2023/07/29 23:15:52;;;;;;;1.20;1.10;;;;;;;;;;8236956;28;20096;-71
2023/07/29 23:19:52;;;;;;;2.95;1.23;;;;;;;;;;8234224;28;20022;-71
2023/07/29 23:23:52;;;;;;;3.22;1.20;;;;;;;;;;8232568;28;20536;-71
2023/07/29 23:27:52;;;;;;;1.80;1.13;;;;;;;;;;8235369;28;20034;-71
2023/07/29 23:31:54;;;;;;;2.40;1.27;;;;;;;;;;8235292;28;20377;-71
2023/07/29 23:36:01;;;;;;;1.25;1.00;;;;;;;;;;8236527;28;20027;-71
2023/07/29 23:40:02;;;;;;;1.35;1.00;;;;;;;;;;8236064;28;20022;-71
2023/07/29 23:44:02;;;;;;;1.23;1.10;;;;;;;;;;8236720;28;20026;-71
2023/07/29 23:48:02;;;;;;;3.08;1.10;;;;;;;;;;8234958;28;20104;-71
2023/07/29 23:52:03;;;;;;;1.20;0.80;;;;;;;;;;8236611;28;20029;-71
2023/07/29 23:56:03;;;;;;;1.00;1.00;;;;;;;;;;8243471;28;20109;-71
